• Join FlightAware (Why Join?)
  • Login
  • US Flag 
08:44AM EST


 

Airport Tracker/Info


-or-


 

Live Flight TrackerFlight Track Log ✈ JIA2394 ✈ 31-Jul-2013 ✈ KSAV - KDCA

Flight Track Log - Related Links

Times and Time Zones

All times are in EDT time to prevent confusion due to time zone crossing. See the JIA2394 flight status page for this flight to view local times or setup timezone preferences in your user account.

Time Position Orientation Groundspeed Altitude Reporting Facility
EDT Latitude Longitude Course Direction KTS MPH feet Rate Location/Type
11:19AM 32.1750 -81.1156 53° Northeast 229 264 4,000  Level Jacksonville Center
11:20AM 32.2908 -80.9490 50° Northeast  Level FlightAware Approximate
11:20AM 32.2328 -81.0728 32° Northeast 241 277 5,900  Level Jacksonville Center
11:21AM 32.3503 -80.8639 50° Northeast  Level FlightAware Approximate
11:21AM 32.2797 -80.9981 53° Northeast 285 328 8,100  Level Jacksonville Center
11:22AM 32.4091 -80.7780 52° Northeast  Level FlightAware Approximate
11:22AM 32.3267 -80.9258 52° Northeast 302 348 10,100  Level Jacksonville Center
11:23AM 32.4670 -80.6912 52° Northeast  Level FlightAware Approximate
11:23AM 32.3836 -80.8358 53° Northeast 302 348 12,400  Level Jacksonville Center
11:24AM 32.5193 -80.6099 53° Northeast  Level FlightAware Approximate
11:24AM 32.4344 -80.7586 52° Northeast 322 371 13,800  Level Jacksonville Center
11:25AM 32.4914 -80.6711 52° Northeast 322 371 15,500 1,680 Climbing Jacksonville Center
11:26AM 32.5483 -80.5808 53° Northeast 327 376 17,200 1,500 Climbing Jacksonville Center
11:27AM 32.6072 -80.4881 53° Northeast 332 382 18,600 1,440 Climbing Jacksonville Center
11:28AM 32.6658 -80.3978 52° Northeast 332 382 20,100 1,260 Climbing Jacksonville Center
11:29AM 32.7225 -80.3097 53° Northeast 337 388 21,200 960 Climbing Jacksonville Center
11:30AM 32.7772 -80.2192 54° Northeast 337 388 22,100 900 Climbing Jacksonville Center
11:31AM 32.8397 -80.1258 51° Northeast 348 400 23,000 900 Climbing Jacksonville Center
11:32AM 32.9147 -80.0272 48° Northeast 356 410 24,000 840 Climbing Jacksonville Center
11:33AM 33.0075 -79.9747 25° Northeast 356 410 24,700 660 Climbing Jacksonville Center
11:34AM 33.1022 -79.9219 25° Northeast 361 415 25,400 660 Climbing Jacksonville Center
11:35AM 33.1992 -79.8667 26° Northeast 372 428 26,100 660 Climbing Jacksonville Center
11:36AM 33.2981 -79.8136 24° Northeast 377 434 26,800 660 Climbing Jacksonville Center
11:37AM 33.3947 -79.7606 25° Northeast 377 434 27,500 660 Climbing Jacksonville Center
11:38AM 33.4936 -79.7047 25° Northeast 377 434 28,200 600 Climbing Jacksonville Center
11:39AM 33.5925 -79.6511 24° Northeast 377 434 28,800 540 Climbing Jacksonville Center
11:40AM 33.6908 -79.5903 27° Northeast 382 440 29,300 480 Climbing Jacksonville Center
11:41AM 33.7917 -79.5364 24° Northeast 382 440 29,800 480 Climbing Jacksonville Center
11:42AM 33.8903 -79.4778 26° Northeast 389 448 30,300 420 Climbing Jacksonville Center
11:43AM 33.9747 -79.4342 23° Northeast 395 455 30,700 300 Climbing Jacksonville Center
11:44AM 34.0794 -79.3725 26° Northeast 395 455 31,000 60 Climbing Jacksonville Center
11:46AM 34.3464 -79.2189 25° Northeast 419 482 31,000  Level Washington Center
11:47AM 34.4483 -79.1606 25° Northeast 409 471 31,000  Level Washington Center
11:48AM 34.5522 -79.1019 25° Northeast 409 471 31,000  Level Washington Center
11:49AM 34.6542 -79.0408 26° Northeast 409 471 31,000  Level Washington Center
11:50AM 34.7581 -78.9819 25° Northeast 409 471 31,000  Level Washington Center
11:51AM 34.8578 -78.9228 26° Northeast 404 465 31,000  Level Washington Center
11:52AM 34.9594 -78.8636 25° Northeast 404 465 31,000  Level Washington Center
11:53AM 35.0592 -78.8044 26° Northeast 404 465 31,000  Level Washington Center
11:54AM 35.1608 -78.7475 25° Northeast 399 459 31,000  Level Washington Center
11:55AM 35.2606 -78.6878 26° Northeast 399 459 31,000  Level Washington Center
11:56AM 35.3664 -78.6256 26° Northeast 399 459 31,000  Level Washington Center
11:57AM 35.4575 -78.5703 26° Northeast 399 459 31,000  Level Washington Center
11:58AM 35.5678 -78.5031 26° Northeast 404 465 31,000  Level Washington Center
11:59AM 35.6650 -78.4478 25° Northeast 412 474 31,000  Level Washington Center
12:00PM 35.7667 -78.3875 26° Northeast 406 467 31,000  Level Washington Center
12:01PM 35.8703 -78.3269 25° Northeast 401 461 31,000  Level Washington Center
12:02PM 35.9719 -78.2639 27° Northeast 401 461 31,000 -300 Level Washington Center
12:03PM 36.0756 -78.2031 25° Northeast 401 461 30,400 -900 Descending Washington Center
12:04PM 36.1833 -78.1372 26° Northeast 406 467 29,200 -1,260 Descending Washington Center
12:05PM 36.2931 -78.0711 26° Northeast 411 473 28,000 -1,140 Descending Washington Center
12:06PM 36.3989 -78.0047 27° Northeast 422 486 27,000 -540 Descending Washington Center
12:07PM 36.5108 -77.9383 25° Northeast 411 473 27,000  Level Washington Center
12:08PM 36.6117 -77.8922 20° North 399 459 27,000  Level Washington Center
12:09PM 36.7106 -77.8511 18° North 393 452 27,000  Level Washington Center
12:10PM 36.8094 -77.8100 18° North 381 438 27,000  Level Washington Center
12:11PM 36.9061 -77.7658 20° North 367 422 27,000 -240 Level Washington Center
12:12PM 37.0072 -77.7247 18° North 367 422 26,600 -720 Descending Washington Center
12:13PM 37.1122 -77.6781 20° North 377 434 25,600 -1,020 Descending Washington Center
12:14PM 37.2172 -77.6314 19° North 388 447 24,600 -1,020 Descending Washington Center
12:15PM 37.3244 -77.5872 18° North 394 453 23,600 -1,020 Descending Washington Center
12:16PM 37.4317 -77.5403 19° North 400 460 22,600 -840 Descending Washington Center
12:17PM 37.5386 -77.4933 19° North 405 466 22,000 -360 Descending Washington Center
12:18PM 37.6394 -77.4486 19° North 405 466 21,900 -960 Descending Washington Center
12:19PM 37.7403 -77.4036 19° North 387 445 20,100 -1,800 Descending Washington Center
12:20PM 37.8392 -77.3589 20° North 382 440 18,300 -1,740 Descending Washington Center
12:21PM 37.9378 -77.3164 19° North 377 434 16,700 -1,740 Descending Washington Center
12:22PM 38.0322 -77.2736 20° North 370 426 14,900 -1,740 Descending Washington Center
12:23PM 38.1244 -77.2361 18° North 359 413 13,200 -1,680 Descending Washington Center
12:24PM 38.2106 -77.1958 20° North 342 394 11,600 -1,620 Descending Washington Center
12:25PM 38.2964 -77.1553 20° North 331 381 10,100 -840 Descending Washington Center
12:26PM 38.3739 -77.1411 North 301 346 10,000 -60 Descending Washington Center
12:27PM 38.4492 -77.1239 10° North 281 323 10,000 -300 Level Washington Center
12:28PM 38.5286 -77.1097 North 281 323 9,500 -780 Descending Washington Center
12:29PM 38.6039 -77.0928 10° North 275 316 8,500 -1,020 Descending Washington Center
12:30PM 38.6811 -77.0756 10° North 275 316 7,500 -1,020 Descending Washington Center
12:31PM 38.7542 -77.0692 North 275 316 6,500 -660 Descending Washington Center
12:33PM 38.8500 -77.1333 332° Northwest 281 323 6,000 -240 Descending Potomac TRACON
12:34PM 38.9000 -77.2000 314° West 213 245 6,000 -300 Level Potomac TRACON
12:35PM 38.9333 -77.2500 311° West 187 215 5,400 -960 Descending Potomac TRACON
12:36PM 38.9833 -77.2167 27° Northeast 198 228 4,100 -1,200 Descending Potomac TRACON
12:37PM 38.9667 -77.1667 113° Southeast 178 205 3,100 -1,140 Descending Potomac TRACON
12:38PM 38.9333 -77.1167 131° Southeast 168 193 1,900 -1,020 Descending Potomac TRACON
12:39PM 38.9000 -77.0833 142° Southeast 154 177 1,100 -780 Descending Potomac TRACON
12:40PM 38.8833 -77.0500 123° Southeast 140 161 400 -720 Descending Potomac TRACON